DW7831 Weather Reports


time (UTC)temp
F
wind
direction
speed
knots
gust
knots
rain 1hr
in
rain 24hr
in
rain mn
in
humidity
%
barometer
mb
20260505204553 73 241 7.0 0.0 0.00 0.00 0.13 34 1004.0
20260505203055 75 232 7.0 0.0 0.00 0.00 0.13 33 1003.8
20260505201550 76 188 10.4 0.0 0.00 0.00 0.13 32 1003.9
20260505200150 76 216 9.6 0.0 0.00 0.00 0.13 33 1003.8
20260505194603 76 232 9.6 0.0 0.00 0.00 0.13 32 1003.8
20260505193048 76 246 7.8 0.0 0.00 0.00 0.13 35 1003.8
20260505191545 76 219 8.7 0.0 0.00 0.00 0.13 33 1004.3
20260505190145 75 274 8.7 0.0 0.00 0.00 0.13 36 1004.3
20260505184543 75 232 6.1 0.0 0.00 0.00 0.13 38 1004.3
20260505183044 74 257 9.6 0.0 0.00 0.00 0.13 38 1004.5
20260505181540 73 192 8.7 0.0 0.00 0.00 0.13 39 1005.0
20260505180140 74 290 10.4 0.0 0.00 0.00 0.13 40 1005.1
20260505174546 74 211 9.6 0.0 0.00 0.00 0.13 40 1005.1
20260505173044 73 218 8.7 0.0 0.00 0.00 0.13 40 1005.2
20260505171537 73 242 8.7 0.0 0.00 0.00 0.13 40 1005.2
20260505170136 74 212 9.6 0.0 0.00 0.00 0.13 41 1005.6
20260505164547 74 213 6.1 0.0 0.00 0.00 0.13 42 1005.7
20260505163032 74 194 9.6 0.0 0.00 0.00 0.13 41 1005.8
20260505161529 74 212 8.7 0.0 0.00 0.00 0.13 42 1005.7
20260505160128 73 225 7.8 0.0 0.00 0.00 0.13 43 1005.7
20260505153023 72 202 7.8 0.0 0.00 0.00 0.13 45 1006.3
20260505151521 72 245 7.8 0.0 0.00 0.00 0.13 45 1006.4
20260505150117 71 218 7.0 0.0 0.00 0.00 0.13 48 1006.4
20260505140109 67 228 4.3 0.0 0.00 0.00 0.13 51 1007.3
20260505124554 64 216 7.8 0.0 0.00 0.00 0.13 55 1007.5
20260505123049 63 200 6.1 0.0 0.00 0.00 0.13 55 1007.6
20260505121545 62 215 6.1 0.0 0.00 0.00 0.13 56 1007.6
20260505120042 61 213 5.2 0.0 0.00 0.00 0.13 56 1007.7
20260505114544 60 219 4.3 0.0 0.00 0.00 0.13 57 1007.7
20260505113035 59 222 4.3 0.0 0.00 0.00 0.13 56 1007.7
20260505111536 58 198 5.2 0.0 0.00 0.00 0.13 56 1007.6
20260505101520 52 202 0.9 0.0 0.00 0.00 0.13 23 1007.0
20260505100019 52 204 0.0 0.0 0.00 0.00 0.13 15 1007.0
20260505094519 52 204 0.0 0.0 0.00 0.00 0.13 23 1006.8
20260505093014 53 204 0.0 0.0 0.00 0.00 0.13 34 1006.7
20260505091509 55 204 0.0 0.0 0.00 0.00 0.13 47 1006.6
20260505090007 57 204 3.5 0.0 0.00 0.00 0.07 63 1007.5
20260505084504 57 202 3.5 0.0 0.00 0.00 0.00 59 1007.7
20260505083002 57 217 3.5 0.0 0.00 0.00 0.00 58 1006.8
20260505081604 58 190 3.5 0.0 0.00 0.00 0.00 58 1006.9
20260505080057 58 211 4.3 0.0 0.00 0.00 0.00 57 1007.1
20260505074610 58 230 4.3 0.0 0.00 0.00 0.00 57 1007.2
20260505073054 58 250 3.5 0.0 0.00 0.00 0.00 56 1007.0
20260505071551 58 214 4.3 0.0 0.00 0.00 0.00 56 1007.1
20260505070052 57 211 2.6 0.0 0.00 0.00 0.00 56 1007.1
20260505064549 58 195 0.9 0.0 0.00 0.00 0.00 55 1007.2
20260505063050 58 208 3.5 0.0 0.00 0.00 0.00 54 1007.1
20260505061609 58 178 5.2 0.0 0.00 0.00 0.00 54 1007.2
20260505060045 59 207 5.2 0.0 0.00 0.00 0.00 53 1007.1
20260505054554 59 202 4.3 0.0 0.00 0.00 0.00 52 1007.2
20260505053038 59 206 6.1 0.0 0.00 0.00 0.00 52 1007.2
20260505051536 59 211 5.2 0.0 0.00 0.00 0.00 51 1007.3
20260505041529 59 217 4.3 0.0 0.00 0.00 0.00 51 1007.6
20260505040128 59 200 6.1 0.0 0.00 0.00 0.00 51 1007.6
20260505034527 59 211 4.3 0.0 0.00 0.00 0.00 50 1007.6
20260505033035 60 208 5.2 0.0 0.00 0.00 0.00 50 1007.5
20260505031526 60 198 6.1 0.0 0.00 0.00 0.00 49 1007.8
20260505030026 60 207 4.3 0.0 0.00 0.00 0.00 49 1007.8
20260505024548 60 202 5.2 0.0 0.00 0.00 0.00 48 1007.8
20260505023034 61 178 7.0 0.0 0.00 0.00 0.00 47 1007.8
20260505021542 60 219 5.2 0.0 0.00 0.00 0.00 46 1007.9
20260505020023 60 184 3.5 0.0 0.00 0.00 0.00 46 1008.1
20260505014527 60 198 3.5 0.0 0.00 0.00 0.00 46 1008.1
20260505013025 60 205 1.7 0.0 0.00 0.00 0.00 47 1008.0
20260505011528 60 190 0.9 0.0 0.00 0.00 0.00 46 1007.8
20260505010023 60 212 1.7 0.0 0.00 0.00 0.00 45 1007.7
20260505004537 60 218 0.9 0.0 0.00 0.00 0.00 46 1007.7
20260505003026 61 219 0.9 0.0 0.00 0.00 0.00 45 1007.6
20260505001526 61 223 0.9 0.0 0.00 0.00 0.00 44 1007.3
20260505000026 62 223 0.9 0.0 0.00 0.00 0.00 43 1007.3
20260504234523 63 224 1.7 0.0 0.00 0.00 0.00 42 1007.2
20260504233022 64 225 2.6 0.0 0.00 0.00 0.00 41 1006.9
20260504231521 64 216 3.5 0.0 0.00 0.00 0.00 41 1006.8
20260504230022 65 175 5.2 0.0 0.00 0.00 0.00 40 1006.7
20260504224523 66 206 5.2 0.0 0.00 0.00 0.00 38 1006.7
20260504223027 66 212 4.3 0.0 0.00 0.00 0.00 38 1006.8
20260504221525 66 217 6.1 0.0 0.00 0.00 0.00 38 1006.8
20260504220024 66 213 6.1 0.0 0.00 0.00 0.00 38 1006.7
20260504214518 67 178 3.5 0.0 0.00 0.00 0.00 38 1006.7
20260504213021 67 222 4.3 0.0 0.00 0.00 0.00 38 1006.9
20260504211519 66 228 5.2 0.0 0.00 0.00 0.00 38 1007.0
20260504210016 66 228 6.1 0.0 0.00 0.00 0.00 38 1007.0